Weather at Flower Mound Airport [CLOSED]

Public forecast

Using degrees Fahrenheit for public forecast. Weather courtesy of forecast.io.

Closest aviation weather report (METAR) to Flower Mound Airport

Closest report is Dallas Fort Worth International Airport, 8.7 nm (16.1 km) SSE.

2024/05/23 01:53 (retrieved 34 minutes ago)

KDFW 230153Z 08005KT 10SM FEW035 BKN120 BKN180 OVC250 23/21 A2976 RMK AO2 SLP068 T02280211

Closest aviation forecast (TAF) to Flower Mound Airport

Forecast is more than 6 hours old.

Closest forecast is NAS Fort Worth JRB / Carswell Field, 22.2 nm (41.0 km) SW.

2024/05/22 19:03 Ammendment (retrieved 7 hours ago)

TAF AMD KNFW 2219/2315 16012G18KT 9000 HZ VCTS SCT035CB BKN050 BKN250 QNH2972INS WND 080V240 TEMPO 2221/2300 VRB30G50KT 2400 +TSRAGR BKN009CB OVC018 BECMG 2300/2302 10012KT 9000 +SHRA VCTS BKN012CB OVC024 QNH2974INS TEMPO 2304/2306 VRB20G26KT 1600 +TSRA BKN006CB OVC010 BECMG 2308/2310 17012KT 9000 BR BKN008 OVC022 QNH2972INS BECMG 2312/2314 21012G18KT 9999 NSW BKN020 OVC060 QNH2975INS TX30/2220Z TN23/2311Z AMD 1955 FN20046